Time;durP1;ratioP1;P1;durP2;ratioP2;P2;SDS_P1;SDS_P2;PMS_P1;PMS_P2;Temp;Humidity;BMP_temperature;BMP_pressure;BME280_temperature;BME280_humidity;BME280_pressure;Samples;Min_cycle;Max_cycle;Signal;HPM_P1;HPM_P2
2022/08/06 00:02:10;;;;;;;1.50;1.00;;;16.20;95.80;;;;;;6135448;23;20817;-77
2022/08/06 00:04:38;;;;;;;1.50;1.00;;;16.20;96.00;;;;;;6150249;23;20982;-77
2022/08/06 00:07:05;;;;;;;1.50;1.00;;;16.10;95.90;;;;;;6134999;23;20476;-77
2022/08/06 00:09:32;;;;;;;1.50;1.00;;;16.10;96.00;;;;;;6151298;23;20421;-77
2022/08/06 00:12:00;;;;;;;1.50;1.00;;;16.10;95.90;;;;;;6139933;23;20456;-77
2022/08/06 00:14:27;;;;;;;1.50;1.10;;;16.10;96.00;;;;;;6150950;23;20425;-76
2022/08/06 00:16:54;;;;;;;1.50;1.00;;;16.00;96.20;;;;;;6134903;23;20456;-77
2022/08/06 00:19:22;;;;;;;1.50;1.00;;;16.00;97.00;;;;;;6149641;23;20449;-77
2022/08/06 00:21:51;;;;;;;1.50;1.00;;;15.90;96.90;;;;;;6134549;23;20543;-78
2022/08/06 00:24:18;;;;;;;1.50;1.00;;;15.90;96.60;;;;;;6149726;23;21068;-77
2022/08/06 00:26:45;;;;;;;1.50;0.90;;;15.90;96.70;;;;;;6134159;23;20476;-78
2022/08/06 00:29:12;;;;;;;1.50;1.00;;;15.80;96.80;;;;;;6160098;23;20432;-77
2022/08/06 00:31:39;;;;;;;1.50;1.00;;;15.80;97.10;;;;;;6140434;23;20533;-77
2022/08/06 00:34:08;;;;;;;1.50;1.00;;;15.80;97.40;;;;;;6158775;23;20448;-77
2022/08/06 00:36:35;;;;;;;1.50;1.00;;;15.80;97.60;;;;;;6134441;23;20459;-77
2022/08/06 00:39:06;;;;;;;1.50;1.00;;;15.70;98.00;;;;;;6149334;23;20427;-77
2022/08/06 00:41:33;;;;;;;1.50;1.00;;;15.70;97.70;;;;;;6141018;23;20951;-78
2022/08/06 00:44:01;;;;;;;1.50;0.90;;;15.70;97.90;;;;;;6149111;23;20425;-77
2022/08/06 00:46:29;;;;;;;1.50;1.00;;;15.60;98.20;;;;;;6141060;23;20528;-77
2022/08/06 00:48:56;;;;;;;1.50;1.00;;;15.60;98.20;;;;;;6159310;23;20421;-78
2022/08/06 00:51:24;;;;;;;1.50;1.10;;;15.60;97.50;;;;;;6133536;23;20444;-78
2022/08/06 00:53:51;;;;;;;1.50;1.00;;;15.50;98.20;;;;;;6159176;23;20417;-77
2022/08/06 00:56:20;;;;;;;1.50;1.00;;;15.50;98.20;;;;;;6136280;23;20539;-77
2022/08/06 00:58:47;;;;;;;1.50;1.00;;;15.50;98.10;;;;;;6152880;23;20511;-78
2022/08/06 01:01:14;;;;;;;1.50;1.00;;;15.40;98.20;;;;;;6143710;23;20661;-77
2022/08/06 01:03:41;;;;;;;1.50;1.00;;;15.40;98.10;;;;;;6150285;23;20504;-77
2022/08/06 01:06:08;;;;;;;1.50;1.10;;;15.40;97.90;;;;;;6137616;23;20448;-77
2022/08/06 01:08:35;;;;;;;1.50;1.00;;;15.30;98.20;;;;;;6152384;23;20445;-77
2022/08/06 01:11:02;;;;;;;1.50;1.00;;;15.30;98.20;;;;;;6137657;23;20459;-77
2022/08/06 01:13:30;;;;;;;1.50;1.00;;;15.30;98.20;;;;;;6152377;23;20925;-78
2022/08/06 01:16:08;;;;;;;1.50;1.10;;;15.30;98.20;;;;;;6139865;23;20448;-79
2022/08/06 01:18:44;;;;;;;1.50;1.00;;;15.20;98.20;;;;;;6153245;23;20455;-78
2022/08/06 01:21:23;;;;;;;1.50;1.00;;;15.20;98.20;;;;;;6138856;23;20464;-77
2022/08/06 01:24:41;;;;;;;1.50;1.00;;;15.10;98.20;;;;;;6151436;23;20415;-77
2022/08/06 01:27:35;;;;;;;1.50;1.00;;;15.10;98.20;;;;;;6133080;23;20967;-77
2022/08/06 01:30:06;;;;;;;1.50;1.00;;;15.10;98.20;;;;;;6151146;23;20459;-77
2022/08/06 01:32:38;;;;;;;1.50;1.10;;;15.00;98.20;;;;;;6136668;23;20856;-78
2022/08/06 01:35:09;;;;;;;1.50;1.10;;;15.00;98.20;;;;;;6151532;23;20872;-77
2022/08/06 01:37:42;;;;;;;1.50;1.00;;;15.00;98.20;;;;;;6136745;23;20449;-77
2022/08/06 01:40:15;;;;;;;1.50;1.07;;;15.00;98.20;;;;;;6153396;23;20406;-77
2022/08/06 01:42:45;;;;;;;1.50;1.10;;;14.90;98.20;;;;;;6136261;23;20444;-77
2022/08/06 01:45:14;;;;;;;1.50;1.00;;;14.90;98.20;;;;;;6151985;23;20424;-77
2022/08/06 01:47:44;;;;;;;1.50;1.00;;;14.90;98.20;;;;;;6138256;23;20838;-77
2022/08/06 01:50:13;;;;;;;1.50;1.00;;;14.90;98.20;;;;;;6152296;23;20412;-76
2022/08/06 01:52:43;;;;;;;1.50;1.07;;;14.80;98.20;;;;;;6138012;23;20662;-77
2022/08/06 01:55:14;;;;;;;1.50;1.00;;;14.80;98.20;;;;;;6161576;23;20477;-77
2022/08/06 01:57:51;;;;;;;1.50;1.00;;;14.80;98.20;;;;;;6136296;23;20452;-77
2022/08/06 02:00:19;;;;;;;1.50;1.00;;;14.70;98.20;;;;;;6162841;23;21021;-77
2022/08/06 02:02:48;;;;;;;1.50;1.00;;;14.70;98.20;;;;;;6135811;23;20871;-76
2022/08/06 02:05:17;;;;;;;1.50;1.00;;;14.70;98.20;;;;;;6151861;23;20456;-77
2022/08/06 02:07:48;;;;;;;1.50;1.07;;;14.70;98.20;;;;;;6135692;23;20483;-77
2022/08/06 02:10:18;;;;;;;1.50;1.00;;;14.70;98.20;;;;;;6151800;23;20428;-77
2022/08/06 02:12:48;;;;;;;1.50;1.10;;;14.70;98.20;;;;;;6134856;23;20441;-77
2022/08/06 02:15:18;;;;;;;1.50;1.00;;;14.70;98.20;;;;;;6150235;23;20790;-77
2022/08/06 02:17:49;;;;;;;1.50;1.00;;;14.70;98.20;;;;;;6134823;23;20452;-77
2022/08/06 02:20:20;;;;;;;1.50;1.00;;;14.60;98.20;;;;;;6161179;23;20503;-77
2022/08/06 02:22:48;;;;;;;1.50;1.00;;;14.60;98.20;;;;;;6136650;23;20449;-77
2022/08/06 02:25:17;;;;;;;1.50;1.00;;;14.60;98.20;;;;;;6149809;23;20460;-77
2022/08/06 02:27:50;;;;;;;1.50;1.00;;;14.60;98.20;;;;;;6134622;23;20638;-77
2022/08/06 02:30:17;;;;;;;1.50;1.03;;;14.50;98.20;;;;;;6151429;23;20817;-78
2022/08/06 02:32:45;;;;;;;1.50;1.10;;;14.50;98.20;;;;;;6134066;23;20454;-77
2022/08/06 02:35:13;;;;;;;1.50;1.00;;;14.50;98.20;;;;;;6149916;23;20476;-77
2022/08/06 02:37:45;;;;;;;1.50;1.00;;;14.50;98.20;;;;;;6144590;23;20459;-77
2022/08/06 02:40:18;;;;;;;1.50;1.00;;;14.40;98.20;;;;;;6167363;23;20880;-77
2022/08/06 02:42:51;;;;;;;1.50;1.03;;;14.40;98.20;;;;;;6134015;23;20445;-76
2022/08/06 02:45:22;;;;;;;1.50;1.00;;;14.40;98.20;;;;;;6159809;23;20425;-77
2022/08/06 02:47:56;;;;;;;1.50;1.00;;;14.30;98.20;;;;;;6135549;23;20513;-77
2022/08/06 02:50:29;;;;;;;1.50;1.00;;;14.30;98.20;;;;;;6160137;23;20758;-77
2022/08/06 02:53:01;;;;;;;1.50;1.00;;;14.30;98.20;;;;;;6137001;23;20828;-78
2022/08/06 02:55:32;;;;;;;1.50;1.00;;;14.30;98.20;;;;;;6162606;23;20424;-77
2022/08/06 02:58:07;;;;;;;1.50;1.00;;;14.20;98.20;;;;;;6135827;23;20452;-77
2022/08/06 03:00:37;;;;;;;1.50;1.00;;;14.20;98.20;;;;;;6152378;23;20503;-77
2022/08/06 03:03:07;;;;;;;1.50;0.97;;;14.20;98.20;;;;;;6136036;23;20445;-78
2022/08/06 03:05:35;;;;;;;1.50;1.00;;;14.20;98.20;;;;;;6150517;23;20421;-77
2022/08/06 03:08:06;;;;;;;1.50;1.10;;;14.20;98.20;;;;;;6135734;23;20803;-78
2022/08/06 03:10:35;;;;;;;1.50;1.00;;;14.10;98.20;;;;;;6151174;23;20424;-77
2022/08/06 03:13:05;;;;;;;1.50;1.00;;;14.10;98.20;;;;;;6135132;23;20449;-77
2022/08/06 03:15:34;;;;;;;1.50;1.10;;;14.10;98.20;;;;;;6150800;23;20505;-78
2022/08/06 03:18:02;;;;;;;1.50;1.03;;;14.10;98.20;;;;;;6135588;23;20481;-77
2022/08/06 03:20:30;;;;;;;1.50;1.00;;;14.10;98.20;;;;;;6151857;23;20428;-77
2022/08/06 03:23:01;;;;;;;1.50;1.00;;;14.10;98.20;;;;;;6135921;23;20639;-77
2022/08/06 03:25:29;;;;;;;1.50;1.00;;;14.10;98.20;;;;;;6149497;23;20963;-77
2022/08/06 03:27:58;;;;;;;1.50;1.00;;;14.00;98.20;;;;;;6134564;23;20480;-78
2022/08/06 03:30:27;;;;;;;1.50;1.00;;;14.00;98.20;;;;;;6152237;23;20423;-78
2022/08/06 03:32:55;;;;;;;1.50;1.00;;;14.00;98.20;;;;;;6135187;23;20448;-78
2022/08/06 03:35:23;;;;;;;1.50;1.10;;;14.00;98.20;;;;;;6150906;23;20799;-77
2022/08/06 03:37:52;;;;;;;1.50;1.10;;;14.00;98.20;;;;;;6134728;23;20535;-77
2022/08/06 03:40:20;;;;;;;1.50;1.10;;;13.90;98.20;;;;;;6161533;23;20955;-78
2022/08/06 03:42:47;;;;;;;1.50;1.07;;;13.90;98.20;;;;;;6136448;23;20445;-78
2022/08/06 03:45:15;;;;;;;1.50;1.00;;;13.90;98.20;;;;;;6150581;23;20499;-77
2022/08/06 03:47:52;;;;;;;1.50;1.00;;;13.90;98.20;;;;;;6137646;23;20527;-78
2022/08/06 03:50:22;;;;;;;1.50;1.00;;;13.90;98.20;;;;;;6151410;23;20837;-78
2022/08/06 03:52:55;;;;;;;1.50;1.00;;;13.90;98.20;;;;;;6135374;23;20576;-77
2022/08/06 03:55:27;;;;;;;1.50;1.00;;;13.90;98.20;;;;;;6160565;23;20406;-77
2022/08/06 03:58:00;;;;;;;1.50;1.00;;;13.80;98.20;;;;;;6135686;23;20456;-78
2022/08/06 04:00:31;;;;;;;1.50;0.90;;;13.80;98.20;;;;;;6152397;23;20405;-77
2022/08/06 04:03:03;;;;;;;1.50;1.10;;;13.80;98.20;;;;;;6135347;23;20545;-77
2022/08/06 04:05:31;;;;;;;1.50;1.07;;;13.80;98.20;;;;;;6150898;23;20448;-77
2022/08/06 04:08:00;;;;;;;1.50;1.10;;;13.80;98.20;;;;;;6135353;23;20444;-77
2022/08/06 04:10:31;;;;;;;1.50;1.00;;;13.80;98.20;;;;;;6160245;23;20424;-77
2022/08/06 04:12:59;;;;;;;1.50;1.00;;;13.80;98.20;;;;;;6134187;23;20452;-77
2022/08/06 04:15:27;;;;;;;1.50;1.10;;;13.80;98.20;;;;;;6149566;23;20429;-77
2022/08/06 04:17:55;;;;;;;1.50;1.00;;;13.70;98.20;;;;;;6134589;23;20484;-77
2022/08/06 04:20:28;;;;;;;1.50;1.10;;;13.80;98.20;;;;;;6161526;23;20425;-78
2022/08/06 04:22:55;;;;;;;1.50;1.00;;;13.80;98.20;;;;;;6134363;23;20449;-77
2022/08/06 04:25:23;;;;;;;1.50;1.00;;;13.80;98.20;;;;;;6151269;23;20475;-77
2022/08/06 04:27:50;;;;;;;1.50;1.00;;;13.80;98.20;;;;;;6133920;23;20477;-77
2022/08/06 04:30:17;;;;;;;1.50;1.00;;;13.80;98.20;;;;;;6151348;23;20681;-77
2022/08/06 04:32:49;;;;;;;1.50;1.00;;;13.80;98.20;;;;;;6144996;23;20472;-78
2022/08/06 04:35:17;;;;;;;1.50;1.00;;;13.80;98.20;;;;;;6160446;23;20431;-78
2022/08/06 04:37:47;;;;;;;1.50;1.00;;;13.80;98.20;;;;;;6144752;23;20477;-78
2022/08/06 04:40:15;;;;;;;1.50;1.10;;;13.80;98.20;;;;;;6163802;23;20760;-77
2022/08/06 04:42:43;;;;;;;1.50;1.00;;;13.80;98.20;;;;;;6152471;23;20859;-78
2022/08/06 04:45:11;;;;;;;1.50;1.10;;;13.80;98.20;;;;;;6160894;23;20892;-78
2022/08/06 04:47:40;;;;;;;1.50;1.00;;;13.80;98.20;;;;;;6135644;23;20503;-77
2022/08/06 04:50:11;;;;;;;1.50;1.00;;;13.90;98.20;;;;;;6151873;23;20424;-78
2022/08/06 04:52:39;;;;;;;1.50;1.03;;;13.90;98.20;;;;;;6142055;23;20476;-77
2022/08/06 04:55:09;;;;;;;1.50;1.07;;;13.90;98.20;;;;;;6156499;23;20431;-78
2022/08/06 04:57:36;;;;;;;1.50;1.10;;;13.90;98.20;;;;;;6143009;23;20456;-77
2022/08/06 05:00:05;;;;;;;1.50;1.10;;;13.90;98.20;;;;;;6156177;23;20428;-76
2022/08/06 05:02:32;;;;;;;1.50;1.10;;;13.90;98.20;;;;;;6156238;23;20424;-78
2022/08/06 05:05:00;;;;;;;1.50;1.10;;;14.00;98.20;;;;;;6155974;23;20425;-78
2022/08/06 05:07:32;;;;;;;1.50;1.00;;;14.00;98.20;;;;;;6164397;23;20443;-77
2022/08/06 05:10:00;;;;;;;1.50;1.00;;;14.00;98.20;;;;;;6166892;23;20452;-78
2022/08/06 05:12:33;;;;;;;1.50;1.00;;;14.10;98.20;;;;;;6155841;23;20417;-78
2022/08/06 05:15:07;;;;;;;1.50;1.10;;;14.10;98.20;;;;;;6168008;23;20424;-78
2022/08/06 05:17:41;;;;;;;1.50;1.00;;;14.20;98.20;;;;;;6142191;23;20859;-77
2022/08/06 05:20:15;;;;;;;1.50;1.00;;;14.30;98.20;;;;;;6156003;23;20413;-78
2022/08/06 05:22:45;;;;;;;1.50;1.00;;;14.40;98.20;;;;;;6155496;23;20826;-78
2022/08/06 05:25:13;;;;;;;1.50;1.00;;;14.70;98.20;;;;;;6167241;23;20448;-78
2022/08/06 05:27:43;;;;;;;1.50;1.10;;;14.90;98.20;;;;;;6141691;23;20528;-76
2022/08/06 05:30:11;;;;;;;1.50;1.00;;;15.00;98.20;;;;;;6164489;23;20431;-77
2022/08/06 05:32:42;;;;;;;1.50;1.10;;;15.20;98.20;;;;;;6139836;23;20464;-77
2022/08/06 05:35:10;;;;;;;1.50;1.00;;;15.50;98.20;;;;;;6155383;23;20694;-78
2022/08/06 05:37:44;;;;;;;1.50;1.00;;;15.60;98.20;;;;;;6160159;23;20511;-78
2022/08/06 05:40:12;;;;;;;1.50;1.10;;;15.80;98.20;;;;;;6169276;23;20444;-77
2022/08/06 05:42:55;;;;;;;1.53;1.03;;;16.00;98.20;;;;;;6160393;23;20421;-80
2022/08/06 05:45:23;;;;;;;1.50;1.00;;;16.10;98.20;;;;;;6174278;23;20423;-78
2022/08/06 05:47:50;;;;;;;1.50;1.00;;;16.30;98.20;;;;;;6134739;23;20452;-79
2022/08/06 05:53:10;;;;;;;1.50;1.00;;;16.90;97.80;;;;;;6122636;23;20812;-79
2022/08/06 06:02:32;;;;;;;1.50;0.90;;;17.40;96.20;;;;;;6073237;23;20528;-79
2022/08/06 06:11:58;;;;;;;1.50;1.00;;;18.00;95.10;;;;;;5928858;23;20578;-80
2022/08/06 06:14:38;;;;;;;1.50;0.90;;;18.20;95.00;;;;;;6038903;23;20456;-79
2022/08/06 06:17:39;;;;;;;1.50;1.00;;;18.40;94.70;;;;;;6116726;23;20994;-79
2022/08/06 06:20:16;;;;;;;1.50;0.90;;;18.70;93.60;;;;;;6142385;23;20492;-81
2022/08/06 06:22:58;;;;;;;1.50;0.90;;;18.90;93.20;;;;;;6133405;23;20532;-79
2022/08/06 06:25:37;;;;;;;1.50;0.90;;;19.00;92.80;;;;;;6143515;23;20958;-79
2022/08/06 06:28:23;;;;;;;1.50;1.00;;;19.30;91.70;;;;;;6119077;23;20449;-79
2022/08/06 06:30:57;;;;;;;1.50;0.90;;;19.50;91.50;;;;;;6137835;23;20447;-78
2022/08/06 06:33:36;;;;;;;1.50;0.90;;;19.40;90.70;;;;;;6130325;23;20433;-80
2022/08/06 06:39:41;;;;;;;1.50;1.00;;;19.60;91.40;;;;;;6042320;23;20548;-77
2022/08/06 06:42:12;;;;;;;1.50;0.90;;;19.80;91.00;;;;;;6107094;23;20445;-79
2022/08/06 06:44:49;;;;;;;1.50;0.90;;;20.00;89.60;;;;;;6131903;23;20397;-79
2022/08/06 06:47:19;;;;;;;1.50;0.90;;;20.00;89.80;;;;;;6116103;23;20477;-79
2022/08/06 06:49:50;;;;;;;1.50;0.90;;;20.10;89.50;;;;;;6139786;23;20430;-77
2022/08/06 06:52:23;;;;;;;2.23;2.03;;;20.30;90.00;;;;;;6118828;23;20453;-78
2022/08/06 06:54:59;;;;;;;1.50;0.90;;;20.60;88.50;;;;;;6131438;23;20430;-78
2022/08/06 06:57:36;;;;;;;1.50;0.90;;;20.80;88.20;;;;;;6119421;23;20459;-78
2022/08/06 07:00:06;;;;;;;1.60;1.00;;;21.00;87.70;;;;;;6132814;23;20435;-76
2022/08/06 07:02:40;;;;;;;1.50;0.90;;;21.20;87.60;;;;;;6131487;23;20453;-78
2022/08/06 07:05:09;;;;;;;1.50;0.90;;;21.30;86.60;;;;;;6140887;23;20443;-77
2022/08/06 07:07:41;;;;;;;1.50;0.90;;;21.50;85.70;;;;;;6141162;23;20805;-77
2022/08/06 07:10:12;;;;;;;1.50;1.00;;;21.30;84.70;;;;;;6129857;23;20414;-77
2022/08/06 07:12:41;;;;;;;1.50;0.90;;;21.10;84.80;;;;;;6117165;23;20463;-78
2022/08/06 07:15:10;;;;;;;1.50;0.90;;;21.10;86.50;;;;;;6128645;23;20456;-76
2022/08/06 07:17:42;;;;;;;1.50;0.90;;;21.40;85.00;;;;;;6139591;23;20909;-77
2022/08/06 07:20:12;;;;;;;1.50;0.90;;;21.40;85.20;;;;;;6130984;23;20500;-78
2022/08/06 07:22:44;;;;;;;1.50;0.90;;;21.40;84.50;;;;;;6115376;23;20485;-76
2022/08/06 07:25:14;;;;;;;1.50;0.90;;;21.50;84.90;;;;;;6140520;23;20835;-78
2022/08/06 07:27:46;;;;;;;1.50;0.90;;;21.60;84.20;;;;;;6116384;23;20785;-76
2022/08/06 07:30:15;;;;;;;1.50;0.90;;;21.70;85.10;;;;;;6141713;23;20421;-79
2022/08/06 07:32:44;;;;;;;1.50;0.90;;;21.90;84.60;;;;;;6116673;23;20449;-78
2022/08/06 07:35:12;;;;;;;1.50;0.90;;;21.90;83.10;;;;;;6141049;23;20438;-78
2022/08/06 07:38:00;;;;;;;1.50;0.90;;;22.00;82.90;;;;;;6115995;23;20572;-77
2022/08/06 07:40:33;;;;;;;1.50;0.90;;;22.20;82.70;;;;;;6142032;23;20426;-77
2022/08/06 07:43:03;;;;;;;1.43;0.90;;;22.50;82.60;;;;;;6115410;23;20552;-78
2022/08/06 07:45:33;;;;;;;1.50;0.90;;;22.70;79.80;;;;;;6131454;23;20422;-79
2022/08/06 07:48:14;;;;;;;1.50;0.90;;;22.80;78.40;;;;;;6132270;23;20464;-79
2022/08/06 07:50:45;;;;;;;1.47;0.90;;;23.00;78.00;;;;;;6131378;23;20766;-77
2022/08/06 07:53:15;;;;;;;1.40;0.90;;;23.00;77.40;;;;;;6089617;23;20469;-78
2022/08/06 07:55:48;;;;;;;1.50;0.90;;;23.00;76.80;;;;;;6131039;23;20406;-77
2022/08/06 07:58:16;;;;;;;1.47;0.90;;;22.90;76.90;;;;;;6090964;23;20438;-78
2022/08/06 08:00:44;;;;;;;1.47;0.90;;;22.90;77.20;;;;;;6133415;23;20437;-78
2022/08/06 08:06:25;;;;;;;1.43;0.90;;;22.90;77.20;;;;;;6123954;23;20393;-78
2022/08/06 08:08:57;;;;;;;1.47;0.90;;;22.90;77.60;;;;;;6130930;23;20428;-78
2022/08/06 08:11:27;;;;;;;1.50;0.80;;;23.00;76.70;;;;;;6122026;23;20450;-76
2022/08/06 08:14:10;;;;;;;1.50;0.90;;;23.00;73.10;;;;;;6139226;23;20448;-78
2022/08/06 08:16:55;;;;;;;1.50;0.90;;;23.00;72.50;;;;;;6143117;23;20537;-77
2022/08/06 08:19:30;;;;;;;1.43;0.90;;;23.10;73.30;;;;;;6133605;23;20482;-77
2022/08/06 08:21:59;;;;;;;1.47;0.90;;;23.20;73.00;;;;;;6118100;23;20459;-75
2022/08/06 08:24:28;;;;;;;1.50;0.90;;;23.30;72.20;;;;;;6132566;23;20538;-77
2022/08/06 08:27:03;;;;;;;1.40;0.90;;;23.40;71.60;;;;;;6144631;23;20761;-78
2022/08/06 08:29:33;;;;;;;1.47;0.90;;;23.30;71.50;;;;;;6144278;23;20748;-77
2022/08/06 08:32:01;;;;;;;1.50;0.90;;;23.30;72.60;;;;;;6131707;23;20508;-77
2022/08/06 08:34:29;;;;;;;1.50;0.90;;;23.50;72.10;;;;;;6131229;23;20769;-77
2022/08/06 08:36:57;;;;;;;1.50;0.90;;;23.50;72.50;;;;;;6131248;23;20823;-76
2022/08/06 08:39:39;;;;;;;1.43;0.83;;;23.60;71.70;;;;;;6133359;23;20421;-77
2022/08/06 08:42:41;;;;;;;1.47;0.87;;;23.80;71.20;;;;;;6126237;23;20457;-77
2022/08/06 08:45:32;;;;;;;1.47;0.90;;;24.00;71.60;;;;;;6127403;23;20423;-78
2022/08/06 08:48:00;;;;;;;1.50;0.90;;;24.10;69.90;;;;;;6115385;23;20452;-77
2022/08/06 08:50:31;;;;;;;1.50;0.90;;;24.00;68.70;;;;;;6141774;23;20449;-77
2022/08/06 08:53:05;;;;;;;1.50;0.80;;;24.10;70.00;;;;;;6139741;23;20418;-78
2022/08/06 08:55:33;;;;;;;1.50;0.90;;;24.10;69.60;;;;;;6129813;23;20441;-78
2022/08/06 08:58:03;;;;;;;1.50;0.90;;;24.10;69.10;;;;;;6115031;23;20607;-78
2022/08/06 09:00:37;;;;;;;1.47;0.90;;;24.20;70.10;;;;;;6133330;23;20422;-79
2022/08/06 09:03:07;;;;;;;1.43;0.90;;;24.20;68.50;;;;;;6114415;23;20444;-77
2022/08/06 09:05:37;;;;;;;1.43;0.90;;;24.20;68.90;;;;;;6142681;23;20433;-78
2022/08/06 09:08:19;;;;;;;;;;;;;;;;;;;;;
2022/08/06 09:10:59;;;;;;;1.43;0.90;;;23.60;68.00;;;;;;6131570;23;20440;-77
2022/08/06 09:13:28;;;;;;;1.43;0.87;;;23.60;69.20;;;;;;6129943;23;20492;-76
2022/08/06 09:16:01;;;;;;;1.47;0.90;;;23.70;69.10;;;;;;6117475;23;20426;-77
2022/08/06 09:18:35;;;;;;;1.43;0.90;;;23.90;69.50;;;;;;6142398;23;20418;-76
2022/08/06 09:21:08;;;;;;;1.50;0.90;;;23.90;68.50;;;;;;6143014;23;20840;-77
2022/08/06 09:23:46;;;;;;;1.47;0.90;;;24.00;68.90;;;;;;6147391;23;20461;-77
2022/08/06 09:26:15;;;;;;;1.43;0.90;;;24.20;67.40;;;;;;6145780;23;20398;-78
2022/08/06 09:28:44;;;;;;;1.50;0.80;;;24.40;69.80;;;;;;6136512;23;20421;-78
2022/08/06 09:31:22;;;;;;;1.47;0.80;;;24.60;68.10;;;;;;6119633;23;20477;-77
2022/08/06 09:33:58;;;;;;;1.50;0.90;;;24.80;66.60;;;;;;6132652;23;20445;-78
2022/08/06 09:39:48;;;;;;;1.60;1.17;;;24.80;67.40;;;;;;5906133;23;20464;-79
2022/08/06 09:42:18;;;;;;;1.50;0.87;;;25.00;67.10;;;;;;6121246;23;20743;-78
2022/08/06 09:45:09;;;;;;;1.50;0.80;;;25.00;65.70;;;;;;6144885;23;20424;-76
2022/08/06 09:47:44;;;;;;;1.47;0.80;;;25.10;65.10;;;;;;6123978;23;20457;-77
2022/08/06 09:50:42;;;;;;;1.50;0.90;;;25.10;65.40;;;;;;6146935;23;20476;-77
2022/08/06 09:53:31;;;;;;;1.43;0.80;;;24.70;65.30;;;;;;6120085;23;20540;-77
2022/08/06 09:55:59;;;;;;;1.50;0.90;;;24.70;68.20;;;;;;6146441;23;20481;-77
2022/08/06 09:58:35;;;;;;;1.47;0.90;;;24.90;67.00;;;;;;6133964;23;20522;-77
2022/08/06 10:01:16;;;;;;;1.50;0.80;;;25.00;67.50;;;;;;6114554;23;20440;-77
2022/08/06 10:03:45;;;;;;;1.47;0.90;;;25.10;65.50;;;;;;6128444;23;20410;-76
2022/08/06 10:06:14;;;;;;;1.50;0.90;;;25.30;65.80;;;;;;6116009;23;20448;-77
2022/08/06 10:08:46;;;;;;;1.50;0.90;;;25.60;65.30;;;;;;6133884;23;20418;-78
2022/08/06 10:11:36;;;;;;;1.47;0.80;;;25.80;65.30;;;;;;6128937;23;20441;-78
2022/08/06 10:14:04;;;;;;;1.50;0.80;;;25.80;64.10;;;;;;6144843;23;20542;-77
2022/08/06 10:16:32;;;;;;;1.50;0.80;;;25.90;63.90;;;;;;6121396;23;20783;-77
2022/08/06 10:19:06;;;;;;;1.50;0.90;;;25.80;63.50;;;;;;6144670;23;20453;-76
2022/08/06 10:21:44;;;;;;;1.40;0.80;;;25.90;62.40;;;;;;6121923;23;20453;-78
2022/08/06 10:24:16;;;;;;;1.50;0.80;;;25.60;62.70;;;;;;6146478;23;20488;-77
2022/08/06 10:26:45;;;;;;;1.40;0.90;;;25.50;63.20;;;;;;6124561;23;20453;-77
2022/08/06 10:29:21;;;;;;;1.40;0.80;;;25.60;63.80;;;;;;6144482;23;20424;-78
2022/08/06 10:34:58;;;;;;;1.47;0.90;;;25.80;60.30;;;;;;6129881;23;20481;-77
2022/08/06 10:37:51;;;;;;;1.50;0.90;;;25.80;62.10;;;;;;6123062;23;20460;-79
2022/08/06 10:40:23;;;;;;;1.50;0.80;;;25.80;63.30;;;;;;6112448;23;20425;-78
2022/08/06 10:46:17;;;;;;;1.40;0.80;;;26.40;62.70;;;;;;6070807;23;20430;-76
2022/08/06 10:48:46;;;;;;;1.50;0.80;;;26.80;62.90;;;;;;6040168;23;20724;-77
2022/08/06 10:51:40;;;;;;;1.40;0.90;;;26.90;60.60;;;;;;6060598;23;20518;-77
2022/08/06 11:00:40;;;;;;;1.43;0.80;;;26.70;61.30;;;;;;5985970;23;20421;-77
2022/08/06 11:03:28;;;;;;;1.43;0.80;;;26.80;61.60;;;;;;6002163;23;21055;-78
2022/08/06 11:06:15;;;;;;;1.40;0.80;;;26.80;61.20;;;;;;6011833;23;20449;-78
2022/08/06 11:09:04;;;;;;;1.40;0.80;;;26.80;60.60;;;;;;6026724;23;20417;-77
2022/08/06 11:11:46;;;;;;;1.60;1.20;;;26.80;60.20;;;;;;6101946;23;20935;-78
2022/08/06 11:14:27;;;;;;;1.40;0.80;;;26.90;59.00;;;;;;6145158;23;20425;-76
2022/08/06 11:16:59;;;;;;;1.47;0.80;;;27.00;60.30;;;;;;6119806;23;20728;-79
2022/08/06 11:19:59;;;;;;;1.43;0.80;;;27.10;59.70;;;;;;6122084;23;20948;-77
2022/08/06 11:22:58;;;;;;;1.40;0.80;;;27.40;60.00;;;;;;6071240;23;20455;-79
2022/08/06 11:25:41;;;;;;;1.50;0.80;;;27.80;58.60;;;;;;6143328;23;20712;-77
2022/08/06 11:28:13;;;;;;;1.40;0.80;;;27.70;57.30;;;;;;6119190;23;20536;-78
2022/08/06 11:30:43;;;;;;;1.43;0.80;;;27.80;57.40;;;;;;6141248;23;20398;-77
2022/08/06 11:33:14;;;;;;;1.47;0.80;;;27.90;57.50;;;;;;6116629;23;20444;-76
2022/08/06 11:35:49;;;;;;;1.50;0.80;;;28.00;56.70;;;;;;6141317;23;20459;-78
2022/08/06 11:38:52;;;;;;;1.40;0.80;;;27.90;57.70;;;;;;6094897;23;21013;-79
2022/08/06 11:41:24;;;;;;;1.47;0.87;;;27.90;57.50;;;;;;6112805;23;20479;-76
2022/08/06 11:44:18;;;;;;;1.47;0.83;;;27.20;58.50;;;;;;6133352;23;20417;-77
2022/08/06 11:46:50;;;;;;;1.50;0.80;;;26.60;59.60;;;;;;6125977;23;20488;-78
2022/08/06 11:50:00;;;;;;;1.47;0.80;;;26.20;61.10;;;;;;6144137;23;20856;-77
2022/08/06 11:52:49;;;;;;;1.40;0.90;;;26.00;61.10;;;;;;6112403;23;20453;-78
2022/08/06 11:55:17;;;;;;;1.50;0.80;;;26.10;58.70;;;;;;6114789;23;20480;-79
2022/08/06 11:58:07;;;;;;;1.43;0.83;;;26.30;59.30;;;;;;6115446;23;20449;-78
2022/08/06 12:00:55;;;;;;;1.47;0.80;;;26.70;57.60;;;;;;6139083;23;20430;-77
2022/08/06 12:03:41;;;;;;;1.43;0.80;;;27.00;57.40;;;;;;6092150;23;20436;-77
2022/08/06 12:06:25;;;;;;;1.47;0.80;;;27.30;57.00;;;;;;6127422;23;20474;-77
2022/08/06 12:09:12;;;;;;;1.40;0.90;;;27.70;57.20;;;;;;6109210;23;20576;-78
2022/08/06 12:11:40;;;;;;;1.47;0.80;;;27.90;58.20;;;;;;6124604;23;20528;-78
2022/08/06 12:14:45;;;;;;;1.43;0.83;;;28.10;55.40;;;;;;6134270;23;20441;-78
2022/08/06 12:24:05;;;;;;;1.43;0.80;;;27.70;56.60;;;;;;5936206;23;20444;-76
2022/08/06 12:30:01;;;;;;;1.40;0.90;;;28.00;56.90;;;;;;6128981;23;20457;-78
2022/08/06 12:33:01;;;;;;;1.40;0.80;;;28.20;56.40;;;;;;6113231;23;20717;-79
2022/08/06 12:35:42;;;;;;;1.40;0.80;;;28.10;54.60;;;;;;6146495;23;20449;-76
2022/08/06 12:38:54;;;;;;;1.43;0.80;;;28.10;55.90;;;;;;6121174;23;20457;-76
2022/08/06 12:44:35;;;;;;;1.47;0.87;;;27.50;56.30;;;;;;6130149;23;20939;-78
2022/08/06 12:47:37;;;;;;;1.43;0.80;;;27.40;58.50;;;;;;6123861;23;20448;-79
2022/08/06 12:50:22;;;;;;;1.47;0.80;;;27.40;57.20;;;;;;6145359;23;20424;-78
2022/08/06 12:53:10;;;;;;;1.43;0.80;;;27.00;57.80;;;;;;6120105;23;20512;-79
2022/08/06 12:55:56;;;;;;;1.43;0.90;;;26.50;56.80;;;;;;6143368;23;20452;-78
2022/08/06 12:58:32;;;;;;;1.47;0.90;;;26.30;58.90;;;;;;6095327;23;20452;-77
2022/08/06 13:01:08;;;;;;;1.40;0.80;;;25.90;58.00;;;;;;6129101;23;20441;-78
2022/08/06 13:04:04;;;;;;;1.40;0.80;;;25.60;58.70;;;;;;6133158;23;20416;-78
2022/08/06 13:13:20;;;;;;;1.40;0.80;;;25.70;59.60;;;;;;6114565;23;20500;-78
2022/08/06 13:22:03;;;;;;;1.47;0.80;;;26.90;57.50;;;;;;6113053;23;20449;-77
2022/08/06 13:24:31;;;;;;;1.43;0.80;;;27.10;57.10;;;;;;6142086;23;20475;-77
2022/08/06 13:31:11;;;;;;;1.47;0.90;;;27.10;58.80;;;;;;6133148;23;20416;-77
2022/08/06 13:34:00;;;;;;;1.50;0.80;;;27.10;57.50;;;;;;6141663;23;20433;-76
2022/08/06 13:42:52;;;;;;;1.50;0.90;;;25.70;59.40;;;;;;6099905;23;20821;-77
2022/08/06 13:45:35;;;;;;;1.50;0.80;;;25.80;59.90;;;;;;6122798;23;20422;-76
2022/08/06 13:50:55;;;;;;;1.40;0.80;;;26.40;60.00;;;;;;6104777;23;20445;-79
2022/08/06 13:53:56;;;;;;;1.40;0.80;;;26.90;58.50;;;;;;6127633;23;20413;-76
2022/08/06 13:56:35;;;;;;;1.43;0.90;;;27.40;57.90;;;;;;6115348;23;20462;-78
2022/08/06 13:59:03;;;;;;;1.50;0.80;;;27.80;58.30;;;;;;6139831;23;20641;-77
2022/08/06 14:01:34;;;;;;;1.40;0.80;;;28.20;58.00;;;;;;6124566;23;20460;-77
2022/08/06 14:04:01;;;;;;;1.43;0.80;;;28.50;56.20;;;;;;6141849;23;20445;-77
2022/08/06 14:06:29;;;;;;;1.47;0.80;;;28.50;55.50;;;;;;6120910;23;20456;-78
2022/08/06 14:08:56;;;;;;;1.43;0.80;;;28.30;55.60;;;;;;6143308;23;20421;-78
2022/08/06 14:11:28;;;;;;;1.43;0.80;;;28.00;56.30;;;;;;6127586;23;20449;-76
2022/08/06 14:13:57;;;;;;;1.80;1.20;;;27.80;57.00;;;;;;6118937;23;20421;-78
2022/08/06 14:16:30;;;;;;;1.40;0.80;;;27.70;54.30;;;;;;6127163;23;20448;-78
2022/08/06 14:18:57;;;;;;;1.47;0.80;;;27.70;56.80;;;;;;6142696;23;20429;-77
2022/08/06 14:21:26;;;;;;;1.43;0.80;;;28.00;57.60;;;;;;6124983;23;20456;-77
2022/08/06 14:24:01;;;;;;;1.40;0.80;;;28.10;56.60;;;;;;6134070;23;20433;-78
2022/08/06 14:26:30;;;;;;;1.40;0.90;;;28.30;56.50;;;;;;6124487;23;20448;-78
2022/08/06 14:29:01;;;;;;;1.43;0.80;;;28.50;55.80;;;;;;6132082;23;20422;-79
2022/08/06 14:31:29;;;;;;;1.47;0.80;;;28.20;56.00;;;;;;6118867;23;20446;-78
2022/08/06 14:34:02;;;;;;;1.43;0.80;;;27.70;55.80;;;;;;6143645;23;20425;-78
2022/08/06 14:36:52;;;;;;;1.40;0.80;;;27.20;55.70;;;;;;6126068;23;20517;-77
2022/08/06 14:39:22;;;;;;;1.47;0.80;;;26.60;56.20;;;;;;6144256;23;20409;-79
2022/08/06 14:44:57;;;;;;;1.47;0.80;;;25.80;58.20;;;;;;6053251;23;20420;-78